Airport Information

KLKV - Lake County Airport

KLKV 160707Z AUTO 03003KT 2 1/2SM -SN BR SCT017 OVC025 00/M01 A2980 RMK AO2 UPE0656SNB0656 P0000 FZRANO


  • General Information

  • Coordinates: N 42°9'39"/ W 120°23'56"
  • Location: N/A
  • Surveyed Elevation: 4733 MSL

Operations

Flow Name Active Runways Conditions

Green background denotes normal operations.


Common Frequencies

Callsign Frequency Position Name

More at the Document Center


Charts